createdAt,value
2019-06-26T00:00:18.797Z,25.04
2019-06-26T00:02:53.580Z,25.02
2019-06-26T00:05:26.853Z,24.95
2019-06-26T00:07:59.951Z,24.94
2019-06-26T00:10:33.118Z,24.91
2019-06-26T00:13:06.275Z,24.86
2019-06-26T00:15:39.382Z,24.84
2019-06-26T00:18:12.521Z,24.82
2019-06-26T00:20:45.570Z,24.80
2019-06-26T00:23:18.638Z,24.77
2019-06-26T00:25:51.769Z,24.75
2019-06-26T00:28:24.806Z,24.71
2019-06-26T00:30:58.040Z,24.68
2019-06-26T00:33:31.193Z,24.67
2019-06-26T00:36:04.190Z,24.65
2019-06-26T00:38:40.036Z,24.62
2019-06-26T00:41:11.999Z,24.58
2019-06-26T00:43:45.194Z,24.54
2019-06-26T00:46:18.252Z,24.51
2019-06-26T00:48:51.521Z,24.48
2019-06-26T00:51:24.648Z,24.44
2019-06-26T00:53:57.891Z,24.40
2019-06-26T00:56:30.976Z,24.37
2019-06-26T00:59:04.191Z,24.34
2019-06-26T01:01:37.285Z,24.31
2019-06-26T01:04:15.685Z,24.27
2019-06-26T01:06:48.845Z,24.24
2019-06-26T01:09:21.993Z,24.20
2019-06-26T01:11:55.135Z,24.16
2019-06-26T01:14:28.309Z,24.11
2019-06-26T01:17:01.446Z,24.07
2019-06-26T01:19:34.552Z,24.05
2019-06-26T01:22:07.518Z,24.03
2019-06-26T01:24:40.586Z,24.00
2019-06-26T01:27:13.614Z,23.97
2019-06-26T01:29:47.652Z,23.95
2019-06-26T01:32:20.687Z,23.93
2019-06-26T01:34:53.815Z,23.89
2019-06-26T01:37:27.054Z,23.85
2019-06-26T01:40:00.202Z,23.81
2019-06-26T01:42:33.182Z,23.80
2019-06-26T01:45:08.577Z,23.77
2019-06-26T01:47:41.536Z,23.75
2019-06-26T01:50:14.626Z,23.72
2019-06-26T01:52:52.954Z,23.69
2019-06-26T01:55:26.059Z,23.66
2019-06-26T01:58:00.164Z,23.65
2019-06-26T02:00:33.246Z,23.64
2019-06-26T02:03:06.379Z,23.62
2019-06-26T02:05:39.559Z,23.61
2019-06-26T02:08:12.723Z,23.61
2019-06-26T02:10:45.946Z,23.58
2019-06-26T02:13:19.100Z,23.59
2019-06-26T02:15:52.338Z,23.59
2019-06-26T02:18:33.201Z,23.55
2019-06-26T02:21:06.217Z,23.53
2019-06-26T02:23:39.263Z,23.49
2019-06-26T02:26:12.425Z,23.48
2019-06-26T02:28:45.324Z,23.48
2019-06-26T02:31:18.390Z,23.46
2019-06-26T02:33:51.392Z,23.45
2019-06-26T02:36:24.487Z,23.43
2019-06-26T02:38:57.628Z,23.41
2019-06-26T02:41:30.693Z,23.39
2019-06-26T02:44:03.938Z,23.39
2019-06-26T02:46:36.940Z,23.39
2019-06-26T02:49:10.123Z,23.39
2019-06-26T02:51:44.145Z,23.37
2019-06-26T02:54:17.249Z,23.37
2019-06-26T02:56:50.365Z,23.38
2019-06-26T02:59:23.431Z,23.38
2019-06-26T03:01:57.887Z,23.38
2019-06-26T03:04:30.928Z,23.37
2019-06-26T03:07:05.360Z,23.38
2019-06-26T03:09:38.317Z,23.38
2019-06-26T03:12:11.536Z,23.38
2019-06-26T03:14:44.537Z,23.41
2019-06-26T03:17:17.561Z,23.42
2019-06-26T03:19:50.633Z,23.43
2019-06-26T03:22:23.757Z,23.43
2019-06-26T03:24:56.741Z,23.44
2019-06-26T03:27:29.818Z,23.46
2019-06-26T03:30:02.941Z,23.45
2019-06-26T03:32:36.011Z,23.44
2019-06-26T03:35:09.010Z,23.45
2019-06-26T03:37:42.824Z,23.49
2019-06-26T03:40:16.905Z,23.50
2019-06-26T03:42:50.088Z,23.51
2019-06-26T03:45:26.271Z,23.53
2019-06-26T03:47:57.917Z,23.54
2019-06-26T03:50:31.160Z,23.58
2019-06-26T03:53:04.219Z,23.61
2019-06-26T03:55:37.366Z,23.61
2019-06-26T03:58:12.084Z,23.61
2019-06-26T04:00:46.488Z,23.63
2019-06-26T04:03:18.866Z,23.66
2019-06-26T04:05:51.838Z,23.68
2019-06-26T04:08:25.000Z,23.70
2019-06-26T04:10:58.077Z,23.71
2019-06-26T04:13:31.145Z,23.71
2019-06-26T04:16:04.179Z,23.72
2019-06-26T04:18:37.257Z,23.76
2019-06-26T04:21:10.353Z,23.78
2019-06-26T04:23:43.350Z,23.81
2019-06-26T04:26:16.603Z,23.83
2019-06-26T04:28:49.881Z,23.88
2019-06-26T04:31:23.019Z,23.92
2019-06-26T04:33:57.667Z,23.97
2019-06-26T04:36:31.892Z,24.00
2019-06-26T04:39:06.740Z,24.03
2019-06-26T04:41:40.881Z,24.09
2019-06-26T04:44:13.945Z,24.12
2019-06-26T04:46:47.090Z,24.16
2019-06-26T04:49:20.207Z,24.19
2019-06-26T04:51:53.452Z,24.26
2019-06-26T04:54:26.616Z,24.32
2019-06-26T04:56:59.623Z,24.37
2019-06-26T04:59:32.745Z,24.42
2019-06-26T05:02:05.842Z,24.47
2019-06-26T05:04:38.976Z,24.53
2019-06-26T05:07:11.949Z,24.61
2019-06-26T05:09:44.989Z,24.65
2019-06-26T05:12:18.117Z,24.68
2019-06-26T05:14:51.117Z,24.72
2019-06-26T05:17:24.397Z,24.75
2019-06-26T05:19:57.433Z,24.78
2019-06-26T05:22:30.497Z,24.80
2019-06-26T05:25:03.849Z,24.82
2019-06-26T05:27:39.376Z,24.85
2019-06-26T05:30:12.550Z,24.86
2019-06-26T05:32:45.841Z,24.89
2019-06-26T05:35:18.965Z,24.89
2019-06-26T05:37:52.037Z,24.90
2019-06-26T05:40:25.117Z,24.90
2019-06-26T05:42:58.228Z,24.92
2019-06-26T05:45:38.370Z,24.94
2019-06-26T05:48:11.572Z,24.96
2019-06-26T05:50:46.373Z,24.99
2019-06-26T05:53:19.486Z,25.03
2019-06-26T05:55:52.558Z,25.05
2019-06-26T05:58:25.623Z,25.08
2019-06-26T06:00:58.745Z,25.11
2019-06-26T06:03:33.533Z,25.13
2019-06-26T06:06:08.622Z,25.17
2019-06-26T06:08:43.233Z,25.21
2019-06-26T06:11:16.453Z,25.22
2019-06-26T06:13:51.173Z,25.27
2019-06-26T06:16:26.885Z,25.31
2019-06-26T06:18:59.878Z,25.36
2019-06-26T06:21:34.663Z,25.40
2019-06-26T06:24:07.663Z,25.46
2019-06-26T06:26:40.726Z,25.51
2019-06-26T06:29:13.787Z,25.58
2019-06-26T06:31:47.802Z,25.63
2019-06-26T06:34:20.952Z,25.68
2019-06-26T06:36:54.632Z,25.75
2019-06-26T06:39:27.678Z,25.80
2019-06-26T06:42:00.728Z,25.85
2019-06-26T06:44:34.823Z,25.91
2019-06-26T06:47:09.063Z,25.97
2019-06-26T06:49:41.678Z,26.04
2019-06-26T06:52:16.786Z,26.13
2019-06-26T06:54:51.351Z,26.22
2019-06-26T06:57:24.406Z,26.27
2019-06-26T06:59:59.179Z,26.32
2019-06-26T07:02:32.219Z,26.38
2019-06-26T07:05:07.411Z,26.46
2019-06-26T07:07:40.523Z,26.53
2019-06-26T07:10:13.528Z,26.62
2019-06-26T07:12:46.610Z,26.69
2019-06-26T07:15:21.734Z,26.77
2019-06-26T07:17:55.323Z,26.87
2019-06-26T07:20:28.563Z,26.95
2019-06-26T07:23:01.621Z,27.04
2019-06-26T07:25:34.742Z,27.10
2019-06-26T07:28:07.849Z,27.19
2019-06-26T07:30:41.035Z,27.27
2019-06-26T07:33:14.058Z,27.36
2019-06-26T07:35:47.034Z,27.46
2019-06-26T07:38:20.100Z,27.59
2019-06-26T07:40:53.131Z,27.74
2019-06-26T07:43:26.245Z,27.99
2019-06-26T07:46:00.331Z,28.58
2019-06-26T07:48:33.298Z,29.25
2019-06-26T07:51:06.313Z,29.91
2019-06-26T07:53:39.551Z,30.53
2019-06-26T07:56:12.686Z,31.14
2019-06-26T07:58:47.399Z,31.68
2019-06-26T08:01:20.648Z,32.17
2019-06-26T08:03:53.707Z,32.65
2019-06-26T08:06:26.899Z,33.03
2019-06-26T08:09:00.096Z,33.34
2019-06-26T08:11:33.095Z,33.73
2019-06-26T08:14:06.164Z,34.08
2019-06-26T08:16:40.227Z,34.42
2019-06-26T08:19:13.334Z,34.72
2019-06-26T08:21:46.917Z,34.98
2019-06-26T08:24:19.940Z,35.25
2019-06-26T08:26:53.339Z,35.49
2019-06-26T08:29:26.503Z,35.68
2019-06-26T08:31:59.626Z,35.87
2019-06-26T08:34:32.778Z,36.06
2019-06-26T08:37:05.985Z,36.20
2019-06-26T08:39:39.047Z,36.37
2019-06-26T08:42:14.425Z,36.51
2019-06-26T08:44:47.465Z,36.65
2019-06-26T08:47:20.600Z,36.79
2019-06-26T08:49:53.736Z,36.91
2019-06-26T08:52:26.856Z,37.04
2019-06-26T08:54:59.931Z,37.13
2019-06-26T08:57:33.033Z,37.26
2019-06-26T09:00:08.091Z,37.39
2019-06-26T09:02:41.267Z,37.53
2019-06-26T09:05:14.747Z,37.66
2019-06-26T09:07:47.964Z,37.77
2019-06-26T09:10:21.087Z,37.89
2019-06-26T09:12:55.232Z,37.99
2019-06-26T09:15:29.452Z,38.09
2019-06-26T09:18:02.566Z,38.17
2019-06-26T09:20:40.636Z,38.22
2019-06-26T09:23:13.702Z,38.30
2019-06-26T09:25:46.900Z,38.35
2019-06-26T09:28:20.009Z,38.40
2019-06-26T09:30:53.324Z,38.46
2019-06-26T09:33:26.401Z,38.50
2019-06-26T09:36:01.182Z,38.52
2019-06-26T09:38:34.446Z,38.53
2019-06-26T09:41:07.586Z,38.53
2019-06-26T09:43:41.979Z,38.56
2019-06-26T09:46:15.273Z,38.55
2019-06-26T09:48:53.117Z,38.55
2019-06-26T09:51:24.720Z,38.55
2019-06-26T09:53:57.938Z,38.54
2019-06-26T09:56:30.967Z,38.50
2019-06-26T09:59:04.076Z,38.49
2019-06-26T10:01:37.144Z,38.47
2019-06-26T10:04:13.218Z,38.43
2019-06-26T10:06:46.373Z,38.38
2019-06-26T10:09:19.461Z,38.33
2019-06-26T10:11:52.582Z,38.25
2019-06-26T10:14:45.315Z,38.19
2019-06-26T10:17:00.447Z,38.09
2019-06-26T10:19:33.554Z,38.00
2019-06-26T10:22:06.628Z,37.85
2019-06-26T10:24:39.822Z,37.72
2019-06-26T10:27:12.920Z,37.61
2019-06-26T10:29:46.011Z,37.46
2019-06-26T10:32:19.223Z,37.38
2019-06-26T10:34:52.418Z,37.32
2019-06-26T10:37:25.620Z,37.26
2019-06-26T10:39:58.826Z,37.20
2019-06-26T10:42:32.022Z,37.17
2019-06-26T10:45:07.375Z,37.16
2019-06-26T10:47:42.745Z,37.15
2019-06-26T10:50:16.557Z,37.15
2019-06-26T10:52:49.793Z,37.16
2019-06-26T10:55:23.027Z,37.17
2019-06-26T10:57:56.911Z,37.19
2019-06-26T11:00:29.967Z,37.19
2019-06-26T11:03:03.908Z,37.23
2019-06-26T11:05:37.260Z,37.26
2019-06-26T11:08:10.426Z,37.26
2019-06-26T11:10:43.537Z,37.29
2019-06-26T11:13:16.764Z,37.33
2019-06-26T11:15:49.914Z,37.34
2019-06-26T11:18:24.032Z,37.37
2019-06-26T11:20:57.031Z,37.43
2019-06-26T11:23:30.255Z,37.48
2019-06-26T11:26:03.403Z,37.52
2019-06-26T11:28:36.588Z,37.57
2019-06-26T11:31:09.765Z,37.64
2019-06-26T11:33:42.814Z,37.65
2019-06-26T11:36:16.103Z,37.68
2019-06-26T11:38:49.252Z,37.69
2019-06-26T11:41:22.228Z,37.73
2019-06-26T11:43:55.222Z,37.73
2019-06-26T11:46:28.304Z,37.74
2019-06-26T11:49:01.411Z,37.77
2019-06-26T11:51:36.075Z,37.78
2019-06-26T11:54:09.436Z,37.81
2019-06-26T11:56:44.187Z,37.84
2019-06-26T11:59:18.538Z,37.92
2019-06-26T12:01:51.652Z,37.97
2019-06-26T12:04:27.311Z,38.00
2019-06-26T12:07:16.266Z,38.01
2019-06-26T12:09:50.622Z,38.00
2019-06-26T12:12:23.765Z,38.01
2019-06-26T12:15:14.560Z,38.02
2019-06-26T12:17:47.723Z,38.03
2019-06-26T12:20:36.458Z,38.03
2019-06-26T12:23:09.740Z,38.06
2019-06-26T12:25:42.819Z,38.11
2019-06-26T12:28:15.966Z,38.14
2019-06-26T12:31:05.247Z,38.20
2019-06-26T12:33:54.225Z,38.26
2019-06-26T12:36:28.916Z,38.29
2019-06-26T12:39:02.837Z,38.29
2019-06-26T12:41:37.529Z,38.29
2019-06-26T12:44:10.785Z,38.34
2019-06-26T12:46:43.931Z,38.33
2019-06-26T12:49:33.138Z,38.25
2019-06-26T12:52:22.026Z,38.17
2019-06-26T12:55:11.066Z,38.07
2019-06-26T12:58:12.666Z,38.01
2019-06-26T13:00:50.647Z,37.98
2019-06-26T13:03:41.345Z,38.02
2019-06-26T13:06:14.430Z,38.08
2019-06-26T13:08:47.570Z,38.13
2019-06-26T13:11:20.756Z,38.23
2019-06-26T13:14:02.608Z,38.29
2019-06-26T13:16:31.822Z,38.31
2019-06-26T13:19:04.865Z,38.30
2019-06-26T13:21:38.699Z,38.28
2019-06-26T13:24:13.061Z,38.25
2019-06-26T13:26:46.133Z,38.22
2019-06-26T13:29:20.717Z,38.21
2019-06-26T13:31:53.840Z,38.20
2019-06-26T13:34:27.367Z,38.20
2019-06-26T13:37:00.525Z,38.21
2019-06-26T13:39:33.769Z,38.21
2019-06-26T13:42:06.802Z,38.22
2019-06-26T13:44:39.813Z,38.25
2019-06-26T13:47:12.913Z,38.28
2019-06-26T13:49:45.978Z,38.38
2019-06-26T13:52:19.175Z,38.43
2019-06-26T13:54:52.445Z,38.46
2019-06-26T13:57:25.454Z,38.48
2019-06-26T13:59:58.575Z,38.49
2019-06-26T14:02:31.618Z,38.48
2019-06-26T14:05:07.697Z,38.50
2019-06-26T14:07:40.802Z,38.49
2019-06-26T14:10:13.888Z,38.44
2019-06-26T14:12:48.214Z,38.44
2019-06-26T14:15:21.438Z,38.42
2019-06-26T14:17:54.521Z,38.42
2019-06-26T14:20:27.527Z,38.43
2019-06-26T14:23:00.685Z,38.49
2019-06-26T14:25:33.753Z,38.57
2019-06-26T14:28:06.841Z,38.63
2019-06-26T14:30:42.453Z,38.65
2019-06-26T14:33:15.584Z,38.64
2019-06-26T14:35:49.858Z,38.65
2019-06-26T14:38:23.021Z,38.65
2019-06-26T14:40:59.091Z,38.67
2019-06-26T14:43:32.259Z,38.66
2019-06-26T14:46:05.480Z,38.67
2019-06-26T14:48:38.659Z,38.67
2019-06-26T14:51:12.812Z,38.67
2019-06-26T14:53:45.931Z,38.69
2019-06-26T14:56:19.029Z,38.62
2019-06-26T14:58:52.265Z,38.69
2019-06-26T15:01:26.852Z,38.66
2019-06-26T15:03:59.949Z,38.62
2019-06-26T15:06:33.151Z,38.58
2019-06-26T15:09:06.789Z,38.54
2019-06-26T15:11:40.238Z,38.50
2019-06-26T15:14:14.415Z,38.43
2019-06-26T15:16:48.568Z,38.39
2019-06-26T15:19:21.724Z,38.35
2019-06-26T15:21:58.654Z,38.28
2019-06-26T15:24:30.763Z,38.22
2019-06-26T15:27:03.908Z,38.17
2019-06-26T15:29:37.011Z,38.13
2019-06-26T15:32:11.031Z,38.09
2019-06-26T15:34:44.171Z,38.05
2019-06-26T15:37:17.205Z,37.96
2019-06-26T15:39:50.296Z,37.85
2019-06-26T15:42:23.429Z,37.73
2019-06-26T15:44:56.551Z,37.63
2019-06-26T15:47:29.540Z,37.55
2019-06-26T15:50:02.705Z,37.44
2019-06-26T15:52:35.781Z,37.37
2019-06-26T15:55:10.455Z,37.26
2019-06-26T15:57:43.649Z,37.15
2019-06-26T16:00:16.647Z,37.02
2019-06-26T16:02:50.733Z,36.87
2019-06-26T16:05:23.816Z,36.72
2019-06-26T16:07:56.979Z,36.57
2019-06-26T16:10:30.024Z,36.44
2019-06-26T16:13:03.264Z,36.32
2019-06-26T16:15:37.203Z,36.17
2019-06-26T16:18:21.718Z,36.04
2019-06-26T16:20:56.267Z,35.88
2019-06-26T16:23:30.966Z,35.74
2019-06-26T16:26:04.262Z,35.57
2019-06-26T16:28:37.194Z,35.45
2019-06-26T16:31:10.367Z,35.32
2019-06-26T16:33:43.499Z,35.18
2019-06-26T16:36:19.492Z,35.03
2019-06-26T16:38:52.625Z,34.89
2019-06-26T16:41:25.673Z,34.72
2019-06-26T16:43:58.851Z,34.58
2019-06-26T16:46:31.909Z,34.42
2019-06-26T16:49:04.890Z,34.27
2019-06-26T16:51:38.039Z,34.12
2019-06-26T16:54:11.251Z,33.99
2019-06-26T16:56:44.378Z,33.87
2019-06-26T16:59:17.560Z,33.71
2019-06-26T17:01:50.800Z,33.56
2019-06-26T17:04:25.513Z,33.44
2019-06-26T17:06:58.648Z,33.30
2019-06-26T17:09:31.862Z,33.18
2019-06-26T17:12:06.416Z,33.04
2019-06-26T17:14:40.401Z,32.94
2019-06-26T17:17:13.536Z,32.81
2019-06-26T17:19:46.617Z,32.67
2019-06-26T17:22:19.666Z,32.54
2019-06-26T17:24:52.728Z,32.44
2019-06-26T17:27:25.960Z,32.31
2019-06-26T17:29:59.054Z,32.19
2019-06-26T17:32:32.214Z,32.09
2019-06-26T17:35:08.328Z,31.99
2019-06-26T17:37:42.508Z,31.89
2019-06-26T17:40:16.395Z,31.77
2019-06-26T17:42:50.627Z,31.66
2019-06-26T17:45:23.777Z,31.55
2019-06-26T17:47:56.918Z,31.45
2019-06-26T17:50:30.078Z,31.33
2019-06-26T17:53:17.492Z,31.24
2019-06-26T17:55:38.987Z,31.14
2019-06-26T17:58:12.176Z,31.04
2019-06-26T18:00:45.472Z,30.97
2019-06-26T18:03:18.672Z,30.88
2019-06-26T18:05:51.903Z,30.80
2019-06-26T18:08:25.201Z,30.71
2019-06-26T18:10:58.444Z,30.61
2019-06-26T18:13:32.084Z,30.45
2019-06-26T18:16:05.361Z,30.45
2019-06-26T18:18:39.687Z,30.36
2019-06-26T18:21:14.502Z,30.28
2019-06-26T18:23:47.663Z,30.20
2019-06-26T18:26:20.855Z,30.11
2019-06-26T18:28:54.138Z,30.06
2019-06-26T18:31:30.479Z,29.96
2019-06-26T18:34:02.095Z,29.90
2019-06-26T18:36:35.461Z,29.82
2019-06-26T18:39:09.876Z,29.75
2019-06-26T18:41:43.172Z,29.70
2019-06-26T18:44:16.491Z,29.61
2019-06-26T18:46:50.813Z,29.56
2019-06-26T18:49:24.068Z,29.46
2019-06-26T18:51:57.189Z,29.38
2019-06-26T18:54:30.389Z,29.32
2019-06-26T18:57:03.751Z,29.25
2019-06-26T18:59:36.976Z,29.17
2019-06-26T19:02:10.130Z,29.11
2019-06-26T19:04:43.286Z,29.06
2019-06-26T19:07:16.492Z,29.01
2019-06-26T19:09:49.837Z,28.95
2019-06-26T19:12:23.300Z,28.91
2019-06-26T19:14:57.029Z,28.83
2019-06-26T19:17:30.367Z,28.76
2019-06-26T19:20:04.839Z,28.71
2019-06-26T19:22:38.587Z,28.62
2019-06-26T19:25:11.801Z,28.54
2019-06-26T19:27:45.089Z,28.48
2019-06-26T19:30:18.235Z,28.42
2019-06-26T19:32:51.930Z,28.36
2019-06-26T19:35:25.041Z,28.30
2019-06-26T19:37:58.309Z,28.24
2019-06-26T19:40:31.523Z,28.19
2019-06-26T19:43:05.461Z,28.14
2019-06-26T19:45:38.626Z,28.08
2019-06-26T19:48:11.757Z,28.01
2019-06-26T19:50:45.045Z,27.96
2019-06-26T19:53:18.243Z,27.92
2019-06-26T19:55:51.457Z,27.87
2019-06-26T19:58:24.619Z,27.81
2019-06-26T20:00:57.839Z,27.77
2019-06-26T20:03:31.031Z,27.74
2019-06-26T20:06:04.176Z,27.71
2019-06-26T20:08:51.655Z,27.66
2019-06-26T20:11:13.779Z,27.63
2019-06-26T20:13:46.968Z,27.58
2019-06-26T20:16:20.158Z,27.54
2019-06-26T20:18:53.350Z,27.49
2019-06-26T20:21:26.427Z,27.44
2019-06-26T20:24:01.329Z,27.40
2019-06-26T20:26:34.404Z,27.35
2019-06-26T20:29:07.609Z,27.31
2019-06-26T20:31:40.813Z,27.28
2019-06-26T20:34:13.992Z,27.24
2019-06-26T20:36:48.093Z,27.20
2019-06-26T20:39:22.245Z,27.17
2019-06-26T20:41:55.351Z,27.12
2019-06-26T20:44:28.488Z,27.09
2019-06-26T20:47:01.725Z,27.06
2019-06-26T20:49:34.867Z,27.04
2019-06-26T20:52:08.004Z,27.01
2019-06-26T20:54:41.911Z,26.98
2019-06-26T20:57:15.067Z,26.94
2019-06-26T20:59:48.101Z,26.92
2019-06-26T21:02:21.196Z,26.89
2019-06-26T21:04:55.599Z,26.87
2019-06-26T21:07:28.668Z,26.83
2019-06-26T21:10:01.733Z,26.80
2019-06-26T21:12:34.940Z,26.78
2019-06-26T21:15:08.582Z,26.75
2019-06-26T21:17:41.854Z,26.74
2019-06-26T21:20:15.221Z,26.70
2019-06-26T21:22:48.301Z,26.63
2019-06-26T21:25:22.503Z,26.55
2019-06-26T21:27:55.747Z,26.48
2019-06-26T21:30:28.838Z,26.44
2019-06-26T21:33:01.992Z,26.40
2019-06-26T21:35:36.163Z,26.35
2019-06-26T21:38:09.298Z,26.32
2019-06-26T21:40:42.374Z,26.30
2019-06-26T21:43:15.513Z,26.25
2019-06-26T21:45:48.516Z,26.20
2019-06-26T21:48:21.596Z,26.17
2019-06-26T21:50:54.692Z,26.12
2019-06-26T21:53:27.834Z,26.11
2019-06-26T21:56:21.163Z,26.10
2019-06-26T21:59:11.892Z,26.06
2019-06-26T22:02:02.472Z,26.02
2019-06-26T22:04:52.502Z,26.00
2019-06-26T22:07:38.844Z,25.96
2019-06-26T22:10:19.607Z,25.92
2019-06-26T22:12:52.900Z,25.88
2019-06-26T22:15:25.965Z,25.82
2019-06-26T22:17:59.182Z,25.78
2019-06-26T22:20:32.404Z,25.77
2019-06-26T22:23:05.457Z,25.75
2019-06-26T22:25:50.448Z,25.75
2019-06-26T22:28:13.447Z,25.73
2019-06-26T22:30:46.586Z,25.73
2019-06-26T22:33:19.772Z,25.71
2019-06-26T22:35:52.951Z,25.67
2019-06-26T22:38:28.477Z,25.67
2019-06-26T22:41:03.243Z,25.66
2019-06-26T22:43:36.300Z,25.65
2019-06-26T22:46:09.437Z,25.64
2019-06-26T22:48:43.743Z,25.65
2019-06-26T22:51:16.256Z,25.62
2019-06-26T22:53:49.150Z,25.61
2019-06-26T22:56:22.159Z,25.57
2019-06-26T22:58:55.256Z,25.53
2019-06-26T23:01:28.337Z,25.50
2019-06-26T23:04:01.473Z,25.49
2019-06-26T23:06:37.465Z,25.48
2019-06-26T23:09:09.373Z,25.47
2019-06-26T23:11:43.526Z,25.45
2019-06-26T23:14:16.654Z,25.44
2019-06-26T23:16:49.841Z,25.42
2019-06-26T23:19:22.839Z,25.37
2019-06-26T23:21:56.043Z,25.32
2019-06-26T23:24:29.141Z,25.27
2019-06-26T23:27:02.275Z,25.21
2019-06-26T23:29:36.276Z,25.15
2019-06-26T23:32:09.485Z,25.11
2019-06-26T23:34:42.634Z,25.06
2019-06-26T23:37:15.634Z,25.00
2019-06-26T23:39:48.679Z,24.99
2019-06-26T23:42:21.830Z,24.98
2019-06-26T23:44:54.853Z,24.96
2019-06-26T23:47:29.245Z,24.93
2019-06-26T23:50:01.546Z,24.93
2019-06-26T23:52:37.052Z,24.90
2019-06-26T23:55:10.149Z,24.88
2019-06-26T23:57:57.936Z,24.84
